NWA3509 KORD-KMSP
Flight info
| Callsign | NWA3509 |
|---|---|
| Flight time | 0h 59m |
| Altitude | 40000 |
| Route | PMPKN NEATO DLLAN RONIC KAMMA KKILR4 |
| Aircraft | A333/H-SDE3GHIJ2J3J5M1RVWXY/LB2D1 |
Departure
| Time | 2026-05-05 01:03 |
|---|---|
| Airport | Chicago O'Hare International Airport (KORD) |
Arrival
| Time | 2026-05-05 02:03 |
|---|---|
| Airport | Minneapolis–Saint Paul International Airport / Wold–Chamberlain Field (KMSP) |
| Time | Latitude | Longitude | Altitude | Speed | Heading |
|---|---|---|---|---|---|
| 2026-05-05 00:42 | 41.97355 | -87.89734 | 661 ft | 0 kts | 20° |
| 2026-05-05 00:49 | 41.97355 | -87.89733 | 661 ft | 0 kts | 20° |
| 2026-05-05 00:54 | 41.97354 | -87.89734 | 661 ft | 1 kts | 20° |
| 2026-05-05 00:54 | 41.97308 | -87.89752 | 661 ft | 14 kts | 14° |
| 2026-05-05 00:55 | 41.97251 | -87.89786 | 662 ft | 3 kts | 62° |
| 2026-05-05 00:55 | 41.97250 | -87.89787 | 662 ft | 1 kts | 62° |
| 2026-05-05 00:55 | 41.97259 | -87.89768 | 662 ft | 0 kts | 60° |
| 2026-05-05 00:55 | 41.97259 | -87.89766 | 662 ft | 0 kts | 60° |
| 2026-05-05 00:56 | 41.97259 | -87.89765 | 662 ft | 0 kts | 60° |
| 2026-05-05 00:56 | 41.97260 | -87.89753 | 661 ft | 4 kts | 93° |
| 2026-05-05 00:56 | 41.97232 | -87.89702 | 660 ft | 8 kts | 114° |
| 2026-05-05 00:56 | 41.97234 | -87.89619 | 660 ft | 9 kts | 76° |
| 2026-05-05 00:57 | 41.97223 | -87.89541 | 660 ft | 8 kts | 110° |
| 2026-05-05 00:57 | 41.97202 | -87.89468 | 660 ft | 8 kts | 110° |
| 2026-05-05 00:57 | 41.97194 | -87.89396 | 660 ft | 7 kts | 92° |
| 2026-05-05 00:57 | 41.97194 | -87.89327 | 660 ft | 7 kts | 90° |
| 2026-05-05 00:58 | 41.97194 | -87.89254 | 660 ft | 9 kts | 90° |
| 2026-05-05 00:58 | 41.97194 | -87.89162 | 659 ft | 10 kts | 90° |
| 2026-05-05 00:58 | 41.97194 | -87.89068 | 659 ft | 10 kts | 89° |
| 2026-05-05 00:58 | 41.97195 | -87.88975 | 659 ft | 9 kts | 89° |
| 2026-05-05 00:59 | 41.97195 | -87.88888 | 659 ft | 8 kts | 89° |
| 2026-05-05 00:59 | 41.97196 | -87.88808 | 659 ft | 8 kts | 89° |
| 2026-05-05 00:59 | 41.97196 | -87.88731 | 659 ft | 10 kts | 91° |
| 2026-05-05 00:59 | 41.97195 | -87.88602 | 659 ft | 15 kts | 90° |
| 2026-05-05 01:00 | 41.97183 | -87.88464 | 659 ft | 14 kts | 112° |
| 2026-05-05 01:00 | 41.97171 | -87.88333 | 659 ft | 13 kts | 90° |
| 2026-05-05 01:00 | 41.97171 | -87.88197 | 657 ft | 15 kts | 90° |
| 2026-05-05 01:00 | 41.97170 | -87.88093 | 656 ft | 3 kts | 96° |
| 2026-05-05 01:01 | 41.97160 | -87.88065 | 656 ft | 3 kts | 127° |
| 2026-05-05 01:01 | 41.97139 | -87.88046 | 656 ft | 4 kts | 160° |
| 2026-05-05 01:01 | 41.97107 | -87.88037 | 656 ft | 4 kts | 171° |
| 2026-05-05 01:01 | 41.97076 | -87.88032 | 656 ft | 4 kts | 174° |
| 2026-05-05 01:02 | 41.97042 | -87.88028 | 656 ft | 5 kts | 175° |
| 2026-05-05 01:02 | 41.97001 | -87.88024 | 656 ft | 6 kts | 178° |
| 2026-05-05 01:02 | 41.96960 | -87.88031 | 656 ft | 5 kts | 203° |
| 2026-05-05 01:02 | 41.96921 | -87.88067 | 657 ft | 15 kts | 218° |
| 2026-05-05 01:03 | 41.96646 | -87.88388 | 660 ft | 89 kts | 221° |
| 2026-05-05 01:03 | 41.96013 | -87.89128 | 661 ft | 151 kts | 219° |
| 2026-05-05 01:03 | 41.95169 | -87.90125 | 1182 ft | 162 kts | 228° |
| 2026-05-05 01:03 | 41.94788 | -87.91420 | 2007 ft | 156 kts | 275° |
| 2026-05-05 01:04 | 41.95287 | -87.92651 | 2746 ft | 158 kts | 319° |
| 2026-05-05 01:04 | 41.97561 | -87.93762 | 3448 ft | 198 kts | 346° |
| 2026-05-05 01:04 | 41.98990 | -87.93935 | 3899 ft | 218 kts | 351° |
| 2026-05-05 01:05 | 42.00560 | -87.93990 | 4385 ft | 236 kts | 353° |
| 2026-05-05 01:05 | 42.02287 | -87.93986 | 4874 ft | 255 kts | 355° |
| 2026-05-05 01:05 | 42.04111 | -87.93956 | 5368 ft | 273 kts | 356° |
| 2026-05-05 01:05 | 42.06036 | -87.93916 | 6132 ft | 279 kts | 356° |
| 2026-05-05 01:06 | 42.07980 | -87.93872 | 6904 ft | 285 kts | 356° |
| 2026-05-05 01:06 | 42.09963 | -87.93831 | 7688 ft | 289 kts | 355° |
| 2026-05-05 01:06 | 42.11993 | -87.93787 | 8463 ft | 294 kts | 355° |
| 2026-05-05 01:06 | 42.14057 | -87.93743 | 9253 ft | 298 kts | 355° |
| 2026-05-05 01:07 | 42.16122 | -87.93700 | 10014 ft | 302 kts | 355° |
| 2026-05-05 01:07 | 42.18248 | -87.93654 | 10600 ft | 313 kts | 355° |
| 2026-05-05 01:07 | 42.20479 | -87.93610 | 10965 ft | 332 kts | 356° |
| 2026-05-05 01:07 | 42.22865 | -87.93558 | 11337 ft | 351 kts | 356° |
| 2026-05-05 01:08 | 42.25365 | -87.93504 | 11631 ft | 370 kts | 356° |
| 2026-05-05 01:08 | 42.27995 | -87.93446 | 12097 ft | 383 kts | 356° |
| 2026-05-05 01:08 | 42.30632 | -87.93394 | 12923 ft | 382 kts | 354° |
| 2026-05-05 01:08 | 42.33289 | -87.93655 | 13551 ft | 384 kts | 349° |
| 2026-05-05 01:09 | 42.35974 | -87.93979 | 14201 ft | 389 kts | 349° |
| 2026-05-05 01:09 | 42.38656 | -87.94298 | 14915 ft | 392 kts | 349° |
| 2026-05-05 01:09 | 42.41375 | -87.94623 | 15640 ft | 395 kts | 349° |
| 2026-05-05 01:09 | 42.44128 | -87.94951 | 16269 ft | 400 kts | 349° |
| 2026-05-05 01:10 | 42.46895 | -87.95276 | 17011 ft | 401 kts | 349° |
| 2026-05-05 01:10 | 42.49684 | -87.95618 | 17635 ft | 405 kts | 349° |
| 2026-05-05 01:10 | 42.52467 | -87.95963 | 18195 ft | 410 kts | 348° |
| 2026-05-05 01:10 | 42.55322 | -87.96317 | 18814 ft | 413 kts | 349° |
| 2026-05-05 01:11 | 42.58188 | -87.96664 | 19572 ft | 412 kts | 348° |
| 2026-05-05 01:11 | 42.61044 | -87.97019 | 20095 ft | 416 kts | 348° |
| 2026-05-05 01:11 | 42.63936 | -87.97295 | 20619 ft | 422 kts | 351° |
| 2026-05-05 01:11 | 42.66881 | -87.97502 | 21128 ft | 425 kts | 350° |
| 2026-05-05 01:12 | 42.69850 | -87.97715 | 21671 ft | 428 kts | 350° |
| 2026-05-05 01:12 | 42.72747 | -87.98318 | 22106 ft | 419 kts | 336° |
| 2026-05-05 01:12 | 42.75308 | -87.99957 | 22614 ft | 409 kts | 323° |
| 2026-05-05 01:12 | 42.77781 | -88.01898 | 23074 ft | 413 kts | 323° |
| 2026-05-05 01:13 | 42.80302 | -88.03865 | 23580 ft | 416 kts | 323° |
| 2026-05-05 01:13 | 42.82811 | -88.05824 | 24070 ft | 418 kts | 323° |
| 2026-05-05 01:13 | 42.85332 | -88.07793 | 24499 ft | 422 kts | 323° |
| 2026-05-05 01:13 | 42.87893 | -88.09795 | 24978 ft | 425 kts | 323° |
| 2026-05-05 01:14 | 42.90462 | -88.11804 | 25379 ft | 428 kts | 323° |
| 2026-05-05 01:14 | 42.93043 | -88.13824 | 25783 ft | 432 kts | 323° |
| 2026-05-05 01:14 | 42.95672 | -88.15885 | 26152 ft | 436 kts | 323° |
| 2026-05-05 01:14 | 42.98289 | -88.17937 | 26509 ft | 440 kts | 323° |
| 2026-05-05 01:15 | 43.00958 | -88.20031 | 26927 ft | 443 kts | 323° |
| 2026-05-05 01:15 | 43.03605 | -88.22111 | 27448 ft | 443 kts | 323° |
| 2026-05-05 01:15 | 43.06303 | -88.24235 | 27773 ft | 448 kts | 323° |
| 2026-05-05 01:15 | 43.09043 | -88.26392 | 28203 ft | 450 kts | 323° |
| 2026-05-05 01:16 | 43.11553 | -88.28867 | 28511 ft | 440 kts | 310° |
| 2026-05-05 01:16 | 43.13434 | -88.32113 | 28796 ft | 432 kts | 297° |
| 2026-05-05 01:16 | 43.15076 | -88.35557 | 29176 ft | 434 kts | 298° |
| 2026-05-05 01:16 | 43.16727 | -88.39027 | 29712 ft | 432 kts | 297° |
| 2026-05-05 01:17 | 43.18340 | -88.42433 | 30270 ft | 430 kts | 297° |
| 2026-05-05 01:17 | 43.19974 | -88.45885 | 30715 ft | 430 kts | 297° |
| 2026-05-05 01:17 | 43.21594 | -88.49317 | 31207 ft | 429 kts | 297° |
| 2026-05-05 01:17 | 43.23198 | -88.52713 | 31789 ft | 426 kts | 297° |
| 2026-05-05 01:18 | 43.24789 | -88.56090 | 32305 ft | 424 kts | 297° |
| 2026-05-05 01:18 | 43.26389 | -88.59485 | 32861 ft | 421 kts | 297° |
| 2026-05-05 01:18 | 43.27959 | -88.62830 | 33313 ft | 420 kts | 297° |
| 2026-05-05 01:18 | 43.29539 | -88.66195 | 33686 ft | 420 kts | 297° |
| 2026-05-05 01:19 | 43.31119 | -88.69560 | 34170 ft | 418 kts | 297° |
| 2026-05-05 01:19 | 43.32683 | -88.72897 | 34750 ft | 414 kts | 297° |
| 2026-05-05 01:19 | 43.34217 | -88.76178 | 35134 ft | 412 kts | 297° |
| 2026-05-05 01:19 | 43.35755 | -88.79465 | 35396 ft | 413 kts | 297° |
| 2026-05-05 01:20 | 43.37311 | -88.82800 | 35679 ft | 413 kts | 297° |
| 2026-05-05 01:20 | 43.38838 | -88.86073 | 36002 ft | 411 kts | 297° |
| 2026-05-05 01:20 | 43.40375 | -88.89374 | 36341 ft | 409 kts | 297° |
| 2026-05-05 01:20 | 43.41916 | -88.92682 | 36611 ft | 408 kts | 297° |
| 2026-05-05 01:21 | 43.43444 | -88.95967 | 36818 ft | 410 kts | 297° |
| 2026-05-05 01:21 | 43.44960 | -88.99236 | 37153 ft | 409 kts | 297° |
| 2026-05-05 01:21 | 43.46478 | -89.02506 | 37475 ft | 407 kts | 297° |
| 2026-05-05 01:21 | 43.47994 | -89.05776 | 37701 ft | 407 kts | 297° |
| 2026-05-05 01:22 | 43.49522 | -89.09077 | 37931 ft | 407 kts | 297° |
| 2026-05-05 01:22 | 43.51037 | -89.12356 | 38134 ft | 407 kts | 297° |
| 2026-05-05 01:22 | 43.52539 | -89.15608 | 38301 ft | 407 kts | 297° |
| 2026-05-05 01:22 | 43.54053 | -89.18890 | 38435 ft | 407 kts | 297° |
| 2026-05-05 01:23 | 43.55572 | -89.22187 | 38604 ft | 407 kts | 297° |
| 2026-05-05 01:23 | 43.57087 | -89.25478 | 38729 ft | 408 kts | 297° |
| 2026-05-05 01:23 | 43.58596 | -89.28760 | 38941 ft | 407 kts | 297° |
| 2026-05-05 01:23 | 43.60105 | -89.32050 | 39074 ft | 407 kts | 297° |
| 2026-05-05 01:24 | 43.61625 | -89.35358 | 39250 ft | 406 kts | 297° |
| 2026-05-05 01:24 | 43.63122 | -89.38628 | 39374 ft | 406 kts | 297° |
| 2026-05-05 01:24 | 43.64620 | -89.41901 | 39492 ft | 407 kts | 297° |
| 2026-05-05 01:24 | 43.66125 | -89.45196 | 39580 ft | 407 kts | 298° |
| 2026-05-05 01:25 | 43.69150 | -89.51820 | 39633 ft | 411 kts | 297° |
| 2026-05-05 01:25 | 43.72202 | -89.58522 | 39631 ft | 415 kts | 298° |
| 2026-05-05 01:26 | 43.75257 | -89.65251 | 39613 ft | 417 kts | 297° |
| 2026-05-05 01:26 | 43.78345 | -89.72066 | 39659 ft | 420 kts | 297° |
| 2026-05-05 01:27 | 43.81436 | -89.78899 | 39663 ft | 423 kts | 297° |
| 2026-05-05 01:27 | 43.84554 | -89.85813 | 39629 ft | 425 kts | 298° |
| 2026-05-05 01:28 | 43.87673 | -89.92744 | 39648 ft | 426 kts | 298° |
| 2026-05-05 01:28 | 43.90796 | -89.99697 | 39632 ft | 427 kts | 298° |
| 2026-05-05 01:29 | 43.93932 | -90.06701 | 39621 ft | 428 kts | 298° |
| 2026-05-05 01:29 | 43.97051 | -90.13678 | 39659 ft | 428 kts | 297° |
| 2026-05-05 01:30 | 44.00174 | -90.20688 | 39617 ft | 429 kts | 297° |
| 2026-05-05 01:30 | 44.03295 | -90.27708 | 39622 ft | 428 kts | 297° |
| 2026-05-05 01:31 | 44.06401 | -90.34709 | 39675 ft | 426 kts | 298° |
| 2026-05-05 01:31 | 44.09502 | -90.41719 | 39665 ft | 424 kts | 298° |
| 2026-05-05 01:32 | 44.12559 | -90.48646 | 39672 ft | 423 kts | 297° |
| 2026-05-05 01:32 | 44.15638 | -90.55638 | 39657 ft | 425 kts | 297° |
| 2026-05-05 01:33 | 44.18716 | -90.62643 | 39656 ft | 425 kts | 298° |
| 2026-05-05 01:33 | 44.20247 | -90.66132 | 39401 ft | 422 kts | 297° |
| 2026-05-05 01:33 | 44.21770 | -90.69611 | 38572 ft | 423 kts | 297° |
| 2026-05-05 01:34 | 44.23269 | -90.73032 | 38028 ft | 416 kts | 297° |
| 2026-05-05 01:34 | 44.24752 | -90.76428 | 37592 ft | 407 kts | 296° |
| 2026-05-05 01:34 | 44.26205 | -90.79758 | 36806 ft | 400 kts | 296° |
| 2026-05-05 01:34 | 44.27641 | -90.83051 | 35980 ft | 396 kts | 296° |
| 2026-05-05 01:35 | 44.29041 | -90.86264 | 35367 ft | 392 kts | 295° |
| 2026-05-05 01:35 | 44.30440 | -90.89475 | 34614 ft | 386 kts | 295° |
| 2026-05-05 01:35 | 44.31818 | -90.92656 | 33411 ft | 385 kts | 294° |
| 2026-05-05 01:35 | 44.33201 | -90.95844 | 31876 ft | 392 kts | 294° |
| 2026-05-05 01:36 | 44.34588 | -90.99048 | 30691 ft | 386 kts | 294° |
| 2026-05-05 01:36 | 44.35944 | -91.02165 | 29971 ft | 375 kts | 294° |
| 2026-05-05 01:36 | 44.37275 | -91.05258 | 28673 ft | 377 kts | 294° |
| 2026-05-05 01:36 | 44.38617 | -91.08353 | 28230 ft | 360 kts | 294° |
| 2026-05-05 01:37 | 44.39861 | -91.11231 | 28034 ft | 345 kts | 293° |
| 2026-05-05 01:37 | 44.41090 | -91.14086 | 27811 ft | 339 kts | 293° |
| 2026-05-05 01:37 | 44.42297 | -91.16897 | 27565 ft | 340 kts | 293° |
| 2026-05-05 01:37 | 44.43528 | -91.19756 | 27321 ft | 339 kts | 293° |
| 2026-05-05 01:38 | 44.44738 | -91.22581 | 27056 ft | 339 kts | 294° |
| 2026-05-05 01:38 | 44.45929 | -91.25348 | 26751 ft | 335 kts | 293° |
| 2026-05-05 01:38 | 44.47133 | -91.28158 | 26441 ft | 335 kts | 293° |
| 2026-05-05 01:38 | 44.48320 | -91.30917 | 26152 ft | 331 kts | 293° |
| 2026-05-05 01:39 | 44.49494 | -91.33663 | 25900 ft | 330 kts | 292° |
| 2026-05-05 01:39 | 44.50687 | -91.36455 | 25665 ft | 331 kts | 293° |
| 2026-05-05 01:39 | 44.51863 | -91.39207 | 25328 ft | 331 kts | 293° |
| 2026-05-05 01:39 | 44.53026 | -91.41927 | 24988 ft | 327 kts | 293° |
| 2026-05-05 01:40 | 44.54188 | -91.44656 | 24596 ft | 325 kts | 293° |
| 2026-05-05 01:40 | 44.55349 | -91.47375 | 24167 ft | 323 kts | 292° |
| 2026-05-05 01:40 | 44.56480 | -91.50034 | 23741 ft | 320 kts | 293° |
| 2026-05-05 01:40 | 44.57623 | -91.52717 | 23261 ft | 319 kts | 293° |
| 2026-05-05 01:41 | 44.58752 | -91.55377 | 22778 ft | 318 kts | 292° |
| 2026-05-05 01:41 | 44.59862 | -91.57998 | 22299 ft | 315 kts | 292° |
| 2026-05-05 01:41 | 44.60981 | -91.60629 | 21820 ft | 312 kts | 292° |
| 2026-05-05 01:41 | 44.62084 | -91.63234 | 21342 ft | 309 kts | 293° |
| 2026-05-05 01:42 | 44.63160 | -91.65778 | 20894 ft | 305 kts | 292° |
| 2026-05-05 01:42 | 44.64231 | -91.68311 | 20457 ft | 302 kts | 292° |
| 2026-05-05 01:42 | 44.65305 | -91.70850 | 20031 ft | 299 kts | 292° |
| 2026-05-05 01:42 | 44.66347 | -91.73322 | 19603 ft | 296 kts | 292° |
| 2026-05-05 01:43 | 44.67389 | -91.75790 | 19169 ft | 294 kts | 292° |
| 2026-05-05 01:43 | 44.68424 | -91.78243 | 18745 ft | 291 kts | 293° |
| 2026-05-05 01:43 | 44.69446 | -91.80669 | 18322 ft | 287 kts | 292° |
| 2026-05-05 01:43 | 44.70454 | -91.83066 | 17909 ft | 289 kts | 293° |
| 2026-05-05 01:44 | 44.71476 | -91.85500 | 17491 ft | 289 kts | 293° |
| 2026-05-05 01:44 | 44.72491 | -91.87920 | 17062 ft | 288 kts | 294° |
| 2026-05-05 01:44 | 44.73506 | -91.90340 | 16618 ft | 288 kts | 294° |
| 2026-05-05 01:44 | 44.74517 | -91.92746 | 16196 ft | 287 kts | 294° |
| 2026-05-05 01:45 | 44.75531 | -91.95171 | 15760 ft | 285 kts | 294° |
| 2026-05-05 01:45 | 44.76534 | -91.97569 | 15309 ft | 287 kts | 295° |
| 2026-05-05 01:45 | 44.77546 | -91.99983 | 14867 ft | 287 kts | 295° |
| 2026-05-05 01:45 | 44.78548 | -92.02385 | 14418 ft | 287 kts | 296° |
| 2026-05-05 01:46 | 44.79561 | -92.04810 | 13961 ft | 287 kts | 296° |
| 2026-05-05 01:46 | 44.80560 | -92.07206 | 13504 ft | 286 kts | 296° |
| 2026-05-05 01:46 | 44.81565 | -92.09613 | 13050 ft | 285 kts | 296° |
| 2026-05-05 01:46 | 44.82558 | -92.12000 | 12585 ft | 284 kts | 297° |
| 2026-05-05 01:47 | 44.83552 | -92.14387 | 12134 ft | 282 kts | 297° |
| 2026-05-05 01:47 | 44.84542 | -92.16763 | 11902 ft | 280 kts | 297° |
| 2026-05-05 01:47 | 44.85283 | -92.19285 | 11961 ft | 284 kts | 281° |
| 2026-05-05 01:47 | 44.85505 | -92.22073 | 11065 ft | 293 kts | 276° |
| 2026-05-05 01:48 | 44.85672 | -92.24871 | 10336 ft | 285 kts | 277° |
| 2026-05-05 01:48 | 44.85840 | -92.27647 | 9863 ft | 282 kts | 277° |
| 2026-05-05 01:48 | 44.86000 | -92.30273 | 9981 ft | 261 kts | 277° |
| 2026-05-05 01:48 | 44.86145 | -92.32761 | 9865 ft | 250 kts | 277° |
| 2026-05-05 01:49 | 44.86261 | -92.35141 | 9798 ft | 238 kts | 277° |
| 2026-05-05 01:49 | 44.86375 | -92.37450 | 9772 ft | 234 kts | 277° |
| 2026-05-05 01:49 | 44.86490 | -92.39764 | 9517 ft | 238 kts | 277° |
| 2026-05-05 01:49 | 44.86602 | -92.42058 | 9281 ft | 236 kts | 277° |
| 2026-05-05 01:50 | 44.86714 | -92.44358 | 9043 ft | 234 kts | 277° |
| 2026-05-05 01:50 | 44.86825 | -92.46652 | 8819 ft | 234 kts | 277° |
| 2026-05-05 01:50 | 44.86771 | -92.48933 | 8578 ft | 239 kts | 260° |
| 2026-05-05 01:50 | 44.86061 | -92.51083 | 8378 ft | 245 kts | 248° |
| 2026-05-05 01:51 | 44.85274 | -92.53210 | 8137 ft | 246 kts | 249° |
| 2026-05-05 01:51 | 44.84491 | -92.55338 | 7892 ft | 244 kts | 249° |
| 2026-05-05 01:51 | 44.83704 | -92.57484 | 7652 ft | 247 kts | 249° |
| 2026-05-05 01:51 | 44.82918 | -92.59628 | 7406 ft | 245 kts | 249° |
| 2026-05-05 01:52 | 44.82142 | -92.61752 | 7164 ft | 248 kts | 249° |
| 2026-05-05 01:52 | 44.81352 | -92.63903 | 6955 ft | 246 kts | 249° |
| 2026-05-05 01:52 | 44.80573 | -92.66026 | 6962 ft | 244 kts | 248° |
| 2026-05-05 01:52 | 44.79790 | -92.68160 | 6969 ft | 246 kts | 248° |
| 2026-05-05 01:53 | 44.79012 | -92.70277 | 6955 ft | 239 kts | 248° |
| 2026-05-05 01:53 | 44.78249 | -92.72347 | 6949 ft | 230 kts | 249° |
| 2026-05-05 01:53 | 44.77546 | -92.74256 | 6941 ft | 217 kts | 249° |
| 2026-05-05 01:53 | 44.77039 | -92.76173 | 6919 ft | 197 kts | 269° |
| 2026-05-05 01:54 | 44.76947 | -92.78033 | 6661 ft | 191 kts | 271° |
| 2026-05-05 01:54 | 44.76847 | -92.79870 | 6446 ft | 184 kts | 271° |
| 2026-05-05 01:54 | 44.76752 | -92.81632 | 6240 ft | 178 kts | 271° |
| 2026-05-05 01:54 | 44.76662 | -92.83323 | 6047 ft | 172 kts | 271° |
| 2026-05-05 01:55 | 44.76572 | -92.84985 | 5864 ft | 168 kts | 271° |
| 2026-05-05 01:55 | 44.76485 | -92.86610 | 5737 ft | 165 kts | 271° |
| 2026-05-05 01:55 | 44.76400 | -92.88147 | 5625 ft | 157 kts | 271° |
| 2026-05-05 01:55 | 44.76320 | -92.89643 | 5421 ft | 151 kts | 271° |
| 2026-05-05 01:56 | 44.76239 | -92.91139 | 5255 ft | 152 kts | 272° |
| 2026-05-05 01:56 | 44.76159 | -92.92605 | 5094 ft | 152 kts | 272° |
| 2026-05-05 01:56 | 44.76106 | -92.94084 | 4923 ft | 151 kts | 281° |
| 2026-05-05 01:56 | 44.76521 | -92.95382 | 4734 ft | 146 kts | 305° |
| 2026-05-05 01:57 | 44.77063 | -92.96585 | 4549 ft | 146 kts | 303° |
| 2026-05-05 01:57 | 44.77587 | -92.97803 | 4346 ft | 145 kts | 303° |
| 2026-05-05 01:57 | 44.78115 | -92.99006 | 4149 ft | 144 kts | 303° |
| 2026-05-05 01:57 | 44.78643 | -93.00208 | 3951 ft | 143 kts | 303° |
| 2026-05-05 01:58 | 44.79166 | -93.01399 | 3766 ft | 145 kts | 304° |
| 2026-05-05 01:58 | 44.79694 | -93.02602 | 3576 ft | 145 kts | 304° |
| 2026-05-05 01:58 | 44.80222 | -93.03809 | 3383 ft | 145 kts | 304° |
| 2026-05-05 01:58 | 44.80733 | -93.04979 | 3242 ft | 133 kts | 304° |
| 2026-05-05 01:59 | 44.81205 | -93.06056 | 3084 ft | 128 kts | 304° |
| 2026-05-05 01:59 | 44.81666 | -93.07107 | 2937 ft | 127 kts | 304° |
| 2026-05-05 01:59 | 44.82133 | -93.08172 | 2787 ft | 128 kts | 304° |
| 2026-05-05 01:59 | 44.82595 | -93.09233 | 2617 ft | 122 kts | 304° |
| 2026-05-05 02:00 | 44.83051 | -93.10274 | 2459 ft | 123 kts | 304° |
| 2026-05-05 02:00 | 44.83505 | -93.11315 | 2287 ft | 122 kts | 304° |
| 2026-05-05 02:00 | 44.83946 | -93.12321 | 2127 ft | 126 kts | 304° |
| 2026-05-05 02:00 | 44.84391 | -93.13346 | 1943 ft | 127 kts | 304° |
| 2026-05-05 02:01 | 44.84854 | -93.14401 | 1782 ft | 121 kts | 304° |
| 2026-05-05 02:01 | 44.85298 | -93.15417 | 1636 ft | 129 kts | 305° |
| 2026-05-05 02:01 | 44.85741 | -93.16439 | 1447 ft | 119 kts | 304° |
| 2026-05-05 02:01 | 44.86195 | -93.17474 | 1296 ft | 125 kts | 304° |
| 2026-05-05 02:02 | 44.86647 | -93.18515 | 1119 ft | 127 kts | 304° |
| 2026-05-05 02:02 | 44.87093 | -93.19544 | 959 ft | 121 kts | 304° |
| 2026-05-05 02:02 | 44.87546 | -93.20570 | 871 ft | 122 kts | 303° |
| 2026-05-05 02:02 | 44.87944 | -93.21481 | 830 ft | 87 kts | 301° |
| 2026-05-05 02:03 | 44.88166 | -93.21996 | 833 ft | 35 kts | 301° |
| 2026-05-05 02:03 | 44.88237 | -93.22121 | 835 ft | 13 kts | 349° |
| 2026-05-05 02:03 | 44.88326 | -93.22063 | 834 ft | 8 kts | 37° |
| 2026-05-05 02:03 | 44.88345 | -93.22042 | 834 ft | 3 kts | 38° |
| 2026-05-05 02:04 | 44.88364 | -93.22017 | 833 ft | 4 kts | 45° |
| 2026-05-05 02:04 | 44.88377 | -93.21956 | 833 ft | 8 kts | 122° |
| 2026-05-05 02:04 | 44.88356 | -93.21870 | 833 ft | 9 kts | 94° |
| 2026-05-05 02:04 | 44.88357 | -93.21770 | 832 ft | 4 kts | 88° |
| 2026-05-05 02:05 | 44.88358 | -93.21723 | 831 ft | 3 kts | 87° |
| 2026-05-05 02:05 | 44.88359 | -93.21704 | 831 ft | 0 kts | 86° |
| 2026-05-05 02:05 | 44.88359 | -93.21703 | 831 ft | 0 kts | 86° |
| 2026-05-05 02:05 | 44.88360 | -93.21690 | 830 ft | 2 kts | 86° |
| 2026-05-05 02:06 | 44.88361 | -93.21673 | 830 ft | 0 kts | 86° |
| 2026-05-05 02:06 | 44.88361 | -93.21672 | 830 ft | 0 kts | 86° |